Time;durP1;ratioP1;P1;durP2;ratioP2;P2;SDS_P1;SDS_P2;PMS_P1;PMS_P2;Temp;Humidity;BMP_temperature;BMP_pressure;BME280_temperature;BME280_humidity;BME280_pressure;Samples;Min_cycle;Max_cycle;Signal;HPM_P1;HPM_P2
2023/07/20 00:01:52;;;;;;;10.60;1.90;;;20.90;95.30;;;;;;5028141;28;20188;-65
2023/07/20 00:04:17;;;;;;;5.00;1.97;;;20.90;95.50;;;;;;5028569;28;20186;-65
2023/07/20 00:06:43;;;;;;;2.20;1.77;;;20.80;95.90;;;;;;5026754;28;20343;-65
2023/07/20 00:09:09;;;;;;;3.03;2.23;;;20.80;96.10;;;;;;5028212;28;20323;-65
2023/07/20 00:11:38;;;;;;;8.63;2.23;;;20.80;95.70;;;;;;5028070;28;20185;-65
2023/07/20 00:14:05;;;;;;;6.27;2.20;;;20.80;96.30;;;;;;5028084;28;20585;-65
2023/07/20 00:16:30;;;;;;;7.20;2.10;;;20.80;95.70;;;;;;5027934;28;20430;-65
2023/07/20 00:18:56;;;;;;;2.93;2.00;;;20.80;95.40;;;;;;5027966;28;20435;-65
2023/07/20 00:21:21;;;;;;;4.83;2.67;;;20.80;95.40;;;;;;5028002;28;20667;-66
2023/07/20 00:23:47;;;;;;;4.83;1.70;;;20.80;95.00;;;;;;5026657;28;20218;-65
2023/07/20 00:26:12;;;;;;;7.33;2.17;;;20.70;94.20;;;;;;5027979;28;20707;-65
2023/07/20 00:28:38;;;;;;;9.93;2.30;;;20.70;94.60;;;;;;5028064;28;20267;-65
2023/07/20 00:31:04;;;;;;;11.17;2.27;;;20.70;96.20;;;;;;5027770;28;20217;-65
2023/07/20 00:33:30;;;;;;;3.10;2.00;;;20.70;95.90;;;;;;5028041;28;20749;-65
2023/07/20 00:35:56;;;;;;;5.27;2.67;;;20.70;95.40;;;;;;5030924;28;20199;-65
2023/07/20 00:38:22;;;;;;;5.10;2.13;;;20.60;94.70;;;;;;5031474;28;20968;-65
2023/07/20 00:40:49;;;;;;;7.50;2.03;;;20.60;94.50;;;;;;5031290;28;20439;-65
2023/07/20 00:43:15;;;;;;;5.93;2.30;;;20.60;94.00;;;;;;5029713;28;20470;-65
2023/07/20 00:45:41;;;;;;;2.20;1.93;;;20.60;92.80;;;;;;5031232;28;20473;-65
2023/07/20 00:48:07;;;;;;;2.83;1.70;;;20.50;93.60;;;;;;5031305;28;20461;-65
2023/07/20 00:50:34;;;;;;;2.50;2.10;;;20.50;92.20;;;;;;5030963;28;21038;-65
2023/07/20 00:53:03;;;;;;;3.57;2.50;;;20.50;92.10;;;;;;5031133;28;20848;-65
2023/07/20 00:55:29;;;;;;;6.43;2.47;;;20.50;91.90;;;;;;5031252;28;20427;-65
2023/07/20 00:57:55;;;;;;;4.90;2.23;;;20.50;91.90;;;;;;5029747;28;20526;-65
2023/07/20 01:00:21;;;;;;;6.53;2.43;;;20.50;92.20;;;;;;5030919;28;20608;-65
2023/07/20 01:02:46;;;;;;;2.57;2.20;;;20.50;92.40;;;;;;5031054;28;20194;-65
2023/07/20 01:05:16;;;;;;;2.83;2.30;;;20.50;92.40;;;;;;5031202;28;20853;-65
2023/07/20 01:08:11;;;;;;;3.77;2.23;;;20.50;92.30;;;;;;5029574;28;20230;-65
2023/07/20 01:10:43;;;;;;;8.93;2.87;;;20.40;92.20;;;;;;5030738;28;20451;-65
2023/07/20 01:13:11;;;;;;;6.43;2.33;;;20.40;91.80;;;;;;5030817;28;20416;-65
2023/07/20 01:15:36;;;;;;;3.90;2.60;;;20.40;91.40;;;;;;5031051;28;20421;-65
2023/07/20 01:18:04;;;;;;;2.90;2.50;;;20.40;91.50;;;;;;5029592;28;20474;-65
2023/07/20 01:20:31;;;;;;;4.20;1.93;;;20.30;91.90;;;;;;5030919;28;20215;-65
2023/07/20 01:23:18;;;;;;;5.20;2.30;;;20.30;91.70;;;;;;5031066;28;20419;-65
2023/07/20 01:25:49;;;;;;;4.90;2.60;;;20.30;90.70;;;;;;5031272;28;20561;-65
2023/07/20 01:28:19;;;;;;;2.50;1.90;;;20.30;91.00;;;;;;5031276;28;20419;-65
2023/07/20 01:31:29;;;;;;;5.20;2.47;;;20.20;90.70;;;;;;5031191;28;20450;-65
2023/07/20 01:33:57;;;;;;;3.33;2.10;;;20.20;91.30;;;;;;5020032;28;20468;-65
2023/07/20 01:36:25;;;;;;;3.50;2.33;;;20.20;91.20;;;;;;5030617;28;20421;-65
2023/07/20 01:38:52;;;;;;;6.53;2.60;;;20.10;91.40;;;;;;5030909;28;20498;-65
2023/07/20 01:41:18;;;;;;;4.60;2.40;;;20.10;91.80;;;;;;5031082;28;20480;-65
2023/07/20 01:43:44;;;;;;;4.23;2.47;;;20.10;91.80;;;;;;5031052;28;20432;-66
2023/07/20 01:46:10;;;;;;;2.53;2.30;;;20.10;91.90;;;;;;5029919;28;20847;-65
2023/07/20 01:48:35;;;;;;;11.43;2.50;;;20.10;92.00;;;;;;5030887;28;20859;-65
2023/07/20 01:51:01;;;;;;;2.73;2.40;;;20.00;91.60;;;;;;5030995;28;20497;-65
2023/07/20 01:53:26;;;;;;;3.50;2.77;;;20.00;91.70;;;;;;5030820;28;20182;-65
2023/07/20 01:55:56;;;;;;;2.33;2.07;;;20.00;91.80;;;;;;5030596;28;20184;-65
2023/07/20 01:58:22;;;;;;;6.93;2.67;;;19.90;93.30;;;;;;5030494;28;20591;-66
2023/07/20 02:00:48;;;;;;;4.40;2.77;;;19.90;94.00;;;;;;5030029;28;20509;-65
2023/07/20 02:03:14;;;;;;;3.47;3.00;;;19.90;94.50;;;;;;5029817;28;20213;-65
2023/07/20 02:05:42;;;;;;;4.53;2.30;;;19.90;94.80;;;;;;5029751;28;20218;-65
2023/07/20 02:08:07;;;;;;;6.60;2.23;;;19.90;94.60;;;;;;5029842;28;20529;-65
2023/07/20 02:10:33;;;;;;;3.93;2.80;;;19.90;95.20;;;;;;5029830;28;20447;-65
2023/07/20 02:12:58;;;;;;;5.30;2.63;;;19.90;96.00;;;;;;5029667;28;20195;-65
2023/07/20 02:15:24;;;;;;;5.93;3.00;;;19.80;95.40;;;;;;5029640;28;20573;-65
2023/07/20 02:17:49;;;;;;;3.10;2.53;;;19.80;95.90;;;;;;5029560;28;20195;-65
2023/07/20 02:20:15;;;;;;;4.03;2.57;;;19.80;96.10;;;;;;5029507;28;20216;-65
2023/07/20 02:22:41;;;;;;;7.43;2.57;;;19.70;95.90;;;;;;5029463;28;20603;-65
2023/07/20 02:25:07;;;;;;;7.80;2.83;;;19.70;96.20;;;;;;5029409;28;20223;-65
2023/07/20 02:27:37;;;;;;;5.87;2.53;;;19.70;95.80;;;;;;5028073;28;20221;-65
2023/07/20 02:30:04;;;;;;;6.53;2.70;;;19.60;95.80;;;;;;5029107;28;21244;-65
2023/07/20 02:32:31;;;;;;;3.83;2.60;;;19.60;96.60;;;;;;5029256;28;20443;-65
2023/07/20 02:34:57;;;;;;;11.00;2.63;;;19.60;96.90;;;;;;5029534;28;20425;-65
2023/07/20 02:37:23;;;;;;;6.70;2.67;;;19.50;95.70;;;;;;5029295;28;20438;-65
2023/07/20 02:39:48;;;;;;;4.43;2.70;;;19.50;95.30;;;;;;5029053;28;20443;-65
2023/07/20 02:42:14;;;;;;;3.37;2.30;;;19.50;95.60;;;;;;5029024;28;20568;-65
2023/07/20 02:44:40;;;;;;;3.10;2.17;;;19.40;95.50;;;;;;5029151;28;20244;-65
2023/07/20 02:47:06;;;;;;;4.13;2.20;;;19.40;95.30;;;;;;5027819;28;20552;-65
2023/07/20 02:49:31;;;;;;;9.63;2.27;;;19.40;95.50;;;;;;5028917;28;20707;-65
2023/07/20 02:51:57;;;;;;;3.53;2.13;;;19.40;95.30;;;;;;5028935;28;20419;-65
2023/07/20 02:54:23;;;;;;;2.93;2.00;;;19.30;95.40;;;;;;5029005;28;20216;-65
2023/07/20 02:56:48;;;;;;;7.23;2.33;;;19.30;95.10;;;;;;5028931;28;20278;-65
2023/07/20 02:59:14;;;;;;;7.43;2.70;;;19.30;95.20;;;;;;5028808;28;20235;-65
2023/07/20 03:01:42;;;;;;;5.73;2.73;;;19.30;95.00;;;;;;5028839;28;20184;-65
2023/07/20 03:04:09;;;;;;;7.50;2.20;;;19.30;95.50;;;;;;5028730;28;20185;-66
2023/07/20 03:06:35;;;;;;;4.10;2.53;;;19.30;94.90;;;;;;5028982;28;20987;-65
2023/07/20 03:09:01;;;;;;;5.27;2.23;;;19.20;94.80;;;;;;5028630;28;20434;-65
2023/07/20 03:11:27;;;;;;;6.57;2.30;;;19.30;95.10;;;;;;5028976;28;20919;-65
2023/07/20 03:13:52;;;;;;;3.00;2.40;;;19.30;95.10;;;;;;5029041;28;20188;-65
2023/07/20 03:16:19;;;;;;;3.67;1.70;;;19.30;95.20;;;;;;5029338;28;20679;-65
2023/07/20 03:18:46;;;;;;;6.43;2.47;;;19.20;95.60;;;;;;5028954;28;20599;-65
2023/07/20 03:21:12;;;;;;;9.30;2.73;;;19.20;95.70;;;;;;5028659;28;20433;-65
2023/07/20 03:23:38;;;;;;;3.90;2.53;;;19.10;95.50;;;;;;5028569;28;20531;-65
2023/07/20 03:26:04;;;;;;;4.93;1.93;;;19.10;96.60;;;;;;5028422;28;20565;-65
2023/07/20 03:28:30;;;;;;;3.30;2.17;;;19.10;96.60;;;;;;5028265;28;20534;-65
2023/07/20 03:30:58;;;;;;;5.33;2.50;;;19.10;96.90;;;;;;5028293;28;20200;-65
2023/07/20 03:33:27;;;;;;;3.23;2.63;;;18.90;97.10;;;;;;5028371;28;20219;-65
2023/07/20 03:35:53;;;;;;;5.80;2.50;;;18.90;97.30;;;;;;5028455;28;20433;-65
2023/07/20 03:38:19;;;;;;;3.20;2.67;;;18.80;97.90;;;;;;5028333;28;20880;-64
2023/07/20 03:40:59;;;;;;;3.07;2.53;;;18.70;98.70;;;;;;5028399;28;20447;-64
2023/07/20 03:43:27;;;;;;;4.20;2.27;;;18.60;98.90;;;;;;5028253;28;20419;-65
2023/07/20 03:45:53;;;;;;;4.70;2.47;;;18.60;99.50;;;;;;5027008;28;20480;-65
2023/07/20 03:48:23;;;;;;;2.90;2.20;;;18.50;99.90;;;;;;5028624;28;20753;-65
2023/07/20 03:50:51;;;;;;;3.60;2.50;;;18.50;99.90;;;;;;5028044;28;20469;-65
2023/07/20 03:53:17;;;;;;;4.57;2.60;;;18.30;99.90;;;;;;5028449;28;20797;-65
2023/07/20 03:55:51;;;;;;;8.10;2.70;;;18.30;99.70;;;;;;5028461;28;20578;-65
2023/07/20 03:58:18;;;;;;;4.93;2.70;;;18.20;99.90;;;;;;5028470;28;20456;-65
2023/07/20 04:00:50;;;;;;;7.30;2.70;;;18.10;99.90;;;;;;5028611;28;20451;-65
2023/07/20 04:03:16;;;;;;;6.13;2.33;;;18.20;99.90;;;;;;5028551;28;20427;-65
2023/07/20 04:05:42;;;;;;;4.53;2.47;;;18.10;99.90;;;;;;5028567;28;20515;-65
2023/07/20 04:08:07;;;;;;;2.93;2.10;;;18.20;99.90;;;;;;5028466;28;20952;-65
2023/07/20 04:10:33;;;;;;;5.80;2.60;;;18.20;99.90;;;;;;5031091;28;20483;-65
2023/07/20 04:13:00;;;;;;;5.90;2.80;;;18.10;99.90;;;;;;5032685;28;20617;-65
2023/07/20 04:15:25;;;;;;;8.07;2.27;;;18.10;99.90;;;;;;5032791;28;20215;-65
2023/07/20 04:17:51;;;;;;;10.10;2.60;;;18.10;99.90;;;;;;5031555;28;20977;-65
2023/07/20 04:20:17;;;;;;;4.50;2.27;;;18.10;99.90;;;;;;5032522;28;20227;-65
2023/07/20 04:22:43;;;;;;;8.03;2.90;;;18.20;99.90;;;;;;5032405;28;20755;-65
2023/07/20 04:25:09;;;;;;;4.60;2.20;;;18.10;99.90;;;;;;5031746;28;20492;-68
2023/07/20 04:27:35;;;;;;;5.63;2.20;;;18.20;99.90;;;;;;5031714;28;20446;-69
2023/07/20 04:30:02;;;;;;;4.73;2.30;;;18.20;99.90;;;;;;5031717;28;20447;-68
2023/07/20 04:32:27;;;;;;;3.80;2.53;;;18.30;99.90;;;;;;5031876;28;20422;-69
2023/07/20 04:34:53;;;;;;;4.57;2.10;;;18.30;99.90;;;;;;5031630;28;20797;-69
2023/07/20 04:37:20;;;;;;;4.63;2.50;;;18.40;99.90;;;;;;5031107;28;20666;-69
2023/07/20 04:39:46;;;;;;;4.33;2.37;;;18.40;99.90;;;;;;5031360;28;20470;-67
2023/07/20 04:42:11;;;;;;;12.93;2.40;;;18.40;99.90;;;;;;5031286;28;20223;-66
2023/07/20 04:44:37;;;;;;;5.03;2.60;;;18.40;99.80;;;;;;5031120;28;20450;-66
2023/07/20 04:47:03;;;;;;;3.20;2.20;;;18.40;99.90;;;;;;5028231;28;20195;-67
2023/07/20 04:49:28;;;;;;;5.37;2.30;;;18.40;99.90;;;;;;5029706;28;20707;-67
2023/07/20 04:51:54;;;;;;;2.40;2.20;;;18.40;99.80;;;;;;5029917;28;20422;-66
2023/07/20 04:54:20;;;;;;;6.40;2.40;;;18.40;99.90;;;;;;5030016;28;20188;-66
2023/07/20 04:56:45;;;;;;;6.50;2.33;;;18.30;99.90;;;;;;5030238;28;20188;-67
2023/07/20 04:59:11;;;;;;;5.83;2.40;;;18.40;99.90;;;;;;5029970;28;20215;-66
2023/07/20 05:01:37;;;;;;;7.63;2.60;;;18.40;99.90;;;;;;5030097;28;20602;-66
2023/07/20 05:04:02;;;;;;;2.70;2.27;;;18.30;99.90;;;;;;5030072;28;20287;-66
2023/07/20 05:06:28;;;;;;;3.20;2.20;;;18.40;99.90;;;;;;5029834;28;20705;-66
2023/07/20 05:08:54;;;;;;;5.90;3.00;;;18.50;99.90;;;;;;5028468;28;20195;-66
2023/07/20 05:11:19;;;;;;;5.10;2.10;;;18.60;99.90;;;;;;5029638;28;20418;-66
2023/07/20 05:13:45;;;;;;;7.00;2.37;;;18.50;99.90;;;;;;5029462;28;20179;-67
2023/07/20 05:16:11;;;;;;;9.83;2.43;;;18.50;99.90;;;;;;5029418;28;20185;-66
2023/07/20 05:18:36;;;;;;;4.20;2.23;;;18.50;99.90;;;;;;5029438;28;20207;-66
2023/07/20 05:21:02;;;;;;;4.73;2.33;;;18.50;99.90;;;;;;5028983;28;20258;-67
2023/07/20 05:23:28;;;;;;;3.40;2.60;;;18.60;99.90;;;;;;5029496;28;21009;-67
2023/07/20 05:25:59;;;;;;;5.63;2.00;;;18.80;99.90;;;;;;5029272;28;20230;-65
2023/07/20 05:28:29;;;;;;;4.40;2.30;;;18.80;99.90;;;;;;5029262;28;20263;-66
2023/07/20 05:30:55;;;;;;;3.80;2.30;;;18.80;99.90;;;;;;5029061;28;20439;-65
2023/07/20 05:33:21;;;;;;;3.37;2.30;;;18.90;99.90;;;;;;5029146;28;20501;-66
2023/07/20 05:35:47;;;;;;;4.33;2.80;;;19.10;99.90;;;;;;5029118;28;20997;-66
2023/07/20 05:38:13;;;;;;;4.80;1.77;;;19.30;99.90;;;;;;5029160;28;20518;-66
2023/07/20 05:40:44;;;;;;;5.43;2.00;;;19.30;99.90;;;;;;5029230;28;20518;-66
2023/07/20 05:43:10;;;;;;;4.40;2.40;;;19.40;99.90;;;;;;5029367;28;20188;-67
2023/07/20 05:45:36;;;;;;;3.53;2.00;;;19.40;99.90;;;;;;5029385;28;20463;-66
2023/07/20 05:48:01;;;;;;;7.33;1.93;;;19.50;99.00;;;;;;5029482;28;20418;-66
2023/07/20 05:50:27;;;;;;;8.90;2.53;;;19.60;99.10;;;;;;5029357;28;20599;-66
2023/07/20 05:52:53;;;;;;;9.13;2.43;;;19.60;98.20;;;;;;5029362;28;20199;-66
2023/07/20 05:55:19;;;;;;;4.20;2.33;;;19.70;98.20;;;;;;5029504;28;20424;-66
2023/07/20 05:57:45;;;;;;;5.60;2.57;;;19.70;97.60;;;;;;5029668;28;20427;-67
2023/07/20 06:00:12;;;;;;;10.60;2.60;;;19.80;97.50;;;;;;5029616;28;20207;-65
2023/07/20 06:02:39;;;;;;;3.10;2.30;;;19.80;97.70;;;;;;5029628;28;20536;-67
2023/07/20 06:05:06;;;;;;;3.30;2.43;;;19.80;96.80;;;;;;5029607;28;20489;-67
2023/07/20 06:07:32;;;;;;;4.07;2.23;;;19.90;98.10;;;;;;5028195;28;20415;-66
2023/07/20 06:09:59;;;;;;;3.90;2.50;;;19.90;97.50;;;;;;5029265;28;20439;-67
2023/07/20 06:12:24;;;;;;;667.13;96.37;;;20.00;96.90;;;;;;5028951;28;20176;-66
2023/07/20 06:14:50;;;;;;;14.10;3.90;;;20.00;98.00;;;;;;5028868;28;20423;-66
2023/07/20 06:17:15;;;;;;;6.23;2.47;;;20.20;97.20;;;;;;5028816;28;20184;-66
2023/07/20 06:19:41;;;;;;;4.40;2.30;;;20.20;96.50;;;;;;5028853;28;20196;-67
2023/07/20 06:22:06;;;;;;;33.73;6.90;;;20.20;97.40;;;;;;5029020;28;20184;-66
2023/07/20 06:24:32;;;;;;;6.13;2.37;;;20.40;96.50;;;;;;5028751;28;20644;-66
2023/07/20 06:26:58;;;;;;;1300.27;214.13;;;20.40;96.20;;;;;;5028877;28;20216;-66
2023/07/20 06:29:23;;;;;;;6.77;3.20;;;20.40;95.60;;;;;;5028715;28;20290;-67
2023/07/20 06:31:49;;;;;;;8.10;2.87;;;20.40;96.20;;;;;;5028313;28;20230;-66
2023/07/20 06:34:14;;;;;;;11.80;2.67;;;20.40;97.30;;;;;;5028842;28;20188;-67
2023/07/20 06:36:40;;;;;;;5.33;2.70;;;20.50;96.90;;;;;;5028545;28;20191;-66
2023/07/20 06:39:06;;;;;;;9.97;2.77;;;20.50;96.90;;;;;;5026899;28;20185;-66
2023/07/20 06:41:31;;;;;;;21.13;4.50;;;20.50;96.00;;;;;;5028207;28;20187;-66
2023/07/20 06:43:58;;;;;;;5.10;2.30;;;20.60;96.40;;;;;;5028180;28;20188;-67
2023/07/20 06:46:26;;;;;;;3.83;2.43;;;20.70;96.30;;;;;;5028069;28;20750;-67
2023/07/20 06:48:53;;;;;;;6.40;2.27;;;20.80;95.70;;;;;;5027445;28;20462;-66
2023/07/20 06:51:19;;;;;;;7.67;2.90;;;20.70;95.00;;;;;;5027938;28;20932;-66
2023/07/20 06:53:44;;;;;;;389.57;36.57;;;20.80;94.20;;;;;;5027631;28;20411;-66
2023/07/20 06:56:11;;;;;;;34.87;5.30;;;20.90;94.60;;;;;;5027712;28;20423;-66
2023/07/20 06:58:36;;;;;;;5.50;2.73;;;21.00;95.30;;;;;;5027801;28;20267;-67
2023/07/20 07:01:06;;;;;;;7.40;2.53;;;21.10;94.90;;;;;;5027807;28;20542;-67
2023/07/20 07:03:33;;;;;;;14.33;2.67;;;21.00;94.40;;;;;;5027846;28;20179;-66
2023/07/20 07:05:58;;;;;;;8.20;2.60;;;21.00;95.00;;;;;;5027643;28;20478;-66
2023/07/20 07:08:24;;;;;;;261.00;28.43;;;21.10;96.90;;;;;;5027773;28;20413;-67
2023/07/20 07:10:50;;;;;;;36.80;5.60;;;21.10;96.30;;;;;;5027676;28;20198;-67
2023/07/20 07:13:16;;;;;;;7.03;2.50;;;21.10;95.10;;;;;;5027663;28;20671;-67
2023/07/20 07:15:42;;;;;;;8.93;3.13;;;21.10;95.60;;;;;;5026667;28;20411;-66
2023/07/20 07:18:08;;;;;;;4.80;2.07;;;21.20;95.70;;;;;;5028051;28;20658;-67
2023/07/20 07:20:33;;;;;;;28.63;4.17;;;21.10;94.80;;;;;;5027796;28;20444;-67
2023/07/20 07:22:59;;;;;;;81.43;9.27;;;21.10;94.70;;;;;;5027937;28;20682;-66
2023/07/20 07:25:24;;;;;;;62.30;7.17;;;21.20;96.30;;;;;;5027766;28;20216;-66
2023/07/20 07:27:52;;;;;;;58.73;7.17;;;21.20;95.80;;;;;;5027765;28;20562;-67
2023/07/20 07:30:17;;;;;;;6.07;2.90;;;21.30;96.20;;;;;;5027815;28;20201;-66
2023/07/20 07:32:43;;;;;;;5.40;2.33;;;21.30;95.10;;;;;;5027691;28;20947;-67
2023/07/20 07:35:09;;;;;;;199.47;19.43;;;21.30;95.20;;;;;;5027534;28;20223;-66
2023/07/20 07:37:35;;;;;;;46.00;5.80;;;21.30;95.90;;;;;;5027729;28;20178;-67
2023/07/20 07:40:00;;;;;;;12.27;2.80;;;21.40;95.40;;;;;;5027835;28;20207;-67
2023/07/20 07:42:26;;;;;;;77.40;10.20;;;21.30;94.70;;;;;;5027974;28;20703;-67
2023/07/20 07:44:51;;;;;;;5.53;2.27;;;21.30;96.10;;;;;;5031308;28;20713;-66
2023/07/20 07:47:17;;;;;;;6.47;2.93;;;21.30;95.30;;;;;;5031988;28;20188;-66
2023/07/20 07:49:43;;;;;;;21.43;4.87;;;21.30;95.70;;;;;;5031851;28;20227;-67
2023/07/20 07:52:08;;;;;;;10.73;3.00;;;21.20;94.70;;;;;;5032200;28;20254;-67
2023/07/20 07:54:34;;;;;;;11.20;2.90;;;21.10;94.50;;;;;;5032122;28;20230;-66
2023/07/20 07:56:59;;;;;;;42.83;6.63;;;21.30;97.10;;;;;;5032401;28;20221;-66
2023/07/20 07:59:25;;;;;;;4.50;2.63;;;21.30;95.30;;;;;;5032187;28;20244;-67
2023/07/20 08:01:51;;;;;;;3.77;2.80;;;21.40;95.30;;;;;;5032283;28;20192;-66
2023/07/20 08:04:16;;;;;;;14.20;2.73;;;21.40;94.60;;;;;;5032319;28;20657;-66
2023/07/20 08:06:42;;;;;;;48.00;6.63;;;21.40;95.30;;;;;;5032165;28;20219;-65
2023/07/20 08:09:07;;;;;;;11.80;3.40;;;21.60;95.30;;;;;;5032140;28;20223;-66
2023/07/20 08:11:33;;;;;;;137.90;15.27;;;21.80;95.50;;;;;;5032189;28;20211;-66
2023/07/20 08:14:02;;;;;;;4.47;2.43;;;21.80;96.00;;;;;;5032178;28;20409;-66
2023/07/20 08:16:28;;;;;;;9.57;2.50;;;21.90;95.30;;;;;;5031945;28;20451;-65
2023/07/20 08:18:54;;;;;;;5.60;2.50;;;22.00;95.80;;;;;;5031929;28;20451;-67
2023/07/20 08:21:19;;;;;;;7.50;3.30;;;22.00;95.00;;;;;;5031856;28;20440;-66
2023/07/20 08:23:46;;;;;;;6.73;2.60;;;22.10;94.00;;;;;;5031873;28;20217;-66
2023/07/20 08:26:11;;;;;;;8.03;3.40;;;22.20;94.00;;;;;;5030003;28;20218;-65
2023/07/20 08:28:37;;;;;;;5.97;2.90;;;22.20;94.10;;;;;;5031513;28;20431;-66
2023/07/20 08:31:06;;;;;;;8.30;2.93;;;22.20;93.00;;;;;;5030727;28;20207;-67
2023/07/20 08:33:33;;;;;;;9.50;3.50;;;22.30;94.20;;;;;;5030592;28;20235;-66
2023/07/20 08:36:00;;;;;;;7.30;2.37;;;22.40;92.30;;;;;;5030481;28;20416;-67
2023/07/20 08:38:26;;;;;;;8.07;2.77;;;22.60;93.40;;;;;;5030466;28;20458;-66
2023/07/20 08:40:54;;;;;;;5.90;2.70;;;22.70;92.80;;;;;;5030634;28;21034;-65
2023/07/20 08:43:23;;;;;;;9.17;2.47;;;22.80;93.60;;;;;;5030909;28;20197;-64
2023/07/20 08:45:51;;;;;;;5.70;2.87;;;22.90;92.00;;;;;;5030476;28;20465;-66
2023/07/20 08:48:19;;;;;;;19.47;4.20;;;22.80;91.70;;;;;;5030591;28;20409;-65
2023/07/20 08:50:45;;;;;;;5.37;2.77;;;23.00;92.20;;;;;;5030286;28;20473;-66
2023/07/20 08:53:13;;;;;;;5.20;2.90;;;23.10;91.90;;;;;;5030559;28;20414;-66
2023/07/20 08:55:40;;;;;;;5.67;2.70;;;23.30;91.90;;;;;;5029886;28;20454;-66
2023/07/20 08:58:11;;;;;;;6.57;2.80;;;23.40;92.40;;;;;;5030372;28;20833;-66
2023/07/20 09:00:37;;;;;;;3.50;2.00;;;23.50;92.60;;;;;;5030549;28;20474;-66
2023/07/20 09:03:03;;;;;;;5.40;2.50;;;23.60;90.80;;;;;;5030477;28;20461;-66
2023/07/20 09:05:29;;;;;;;2.53;2.33;;;23.70;90.80;;;;;;5030223;28;20214;-66
2023/07/20 09:07:55;;;;;;;14.33;2.93;;;23.90;88.60;;;;;;5030739;28;20455;-66
2023/07/20 09:10:23;;;;;;;5.83;2.30;;;24.20;90.00;;;;;;5028598;28;20443;-66
2023/07/20 09:12:49;;;;;;;2.83;2.27;;;24.30;86.10;;;;;;5030371;28;20410;-65
2023/07/20 09:15:15;;;;;;;5.13;2.50;;;24.50;86.40;;;;;;5030076;28;21017;-66
2023/07/20 09:17:46;;;;;;;2.87;2.57;;;24.60;87.80;;;;;;5029955;28;20191;-66
2023/07/20 09:20:14;;;;;;;3.20;2.43;;;24.90;88.80;;;;;;5029688;28;20442;-65
2023/07/20 09:22:39;;;;;;;5.13;2.10;;;25.20;84.10;;;;;;5029541;28;20454;-66
2023/07/20 09:25:16;;;;;;;3.60;2.00;;;25.20;84.00;;;;;;5027934;28;20429;-66
2023/07/20 09:27:43;;;;;;;8.13;3.10;;;25.00;83.70;;;;;;5030015;28;20733;-67
2023/07/20 09:30:13;;;;;;;4.63;2.40;;;25.30;83.70;;;;;;5029706;28;20538;-66
2023/07/20 09:32:50;;;;;;;16.87;2.73;;;25.60;83.90;;;;;;5029747;28;20473;-66
2023/07/20 09:35:20;;;;;;;6.47;2.43;;;25.80;82.60;;;;;;5029664;28;20496;-66
2023/07/20 09:37:48;;;;;;;6.30;2.13;;;26.20;81.50;;;;;;5029623;28;20468;-66
2023/07/20 09:40:17;;;;;;;178.70;17.70;;;26.40;79.50;;;;;;5028126;28;20458;-66
2023/07/20 09:42:43;;;;;;;37.10;6.57;;;26.70;79.40;;;;;;5029679;28;20427;-66
2023/07/20 09:45:09;;;;;;;23.03;4.90;;;26.70;73.90;;;;;;5029038;28;20462;-66
2023/07/20 09:47:37;;;;;;;144.67;12.73;;;26.60;75.50;;;;;;5028027;28;20419;-66
2023/07/20 09:50:04;;;;;;;8.93;1.93;;;27.00;77.00;;;;;;5029428;28;20463;-66
2023/07/20 09:52:30;;;;;;;4.27;2.03;;;27.00;75.50;;;;;;5029238;28;20415;-66
2023/07/20 09:54:57;;;;;;;13.13;2.10;;;27.10;73.60;;;;;;5029387;28;20416;-66
2023/07/20 09:57:23;;;;;;;20.80;3.73;;;27.30;71.80;;;;;;5029181;28;20944;-66
2023/07/20 09:59:49;;;;;;;5.43;2.50;;;27.50;71.00;;;;;;5028413;28;20546;-66
2023/07/20 10:02:22;;;;;;;7.90;2.63;;;27.50;70.60;;;;;;5028707;28;20518;-66
2023/07/20 10:04:53;;;;;;;4.97;2.23;;;27.10;72.20;;;;;;5028666;28;20689;-67
2023/07/20 10:07:22;;;;;;;7.53;1.87;;;27.10;70.70;;;;;;5027803;28;20513;-65
2023/07/20 10:09:51;;;;;;;4.30;1.97;;;26.90;71.20;;;;;;5028867;28;20823;-66
2023/07/20 10:12:19;;;;;;;3.03;2.50;;;27.20;73.00;;;;;;5028736;28;20426;-66
2023/07/20 10:14:57;;;;;;;4.40;1.73;;;27.80;73.80;;;;;;5028533;28;21140;-66
2023/07/20 10:17:25;;;;;;;2.30;1.73;;;27.90;71.10;;;;;;5028620;28;20500;-67
2023/07/20 10:19:54;;;;;;;7.53;2.10;;;27.90;69.30;;;;;;5028761;28;20455;-67
2023/07/20 10:22:29;;;;;;;2.53;1.90;;;27.60;68.50;;;;;;5028319;28;20900;-67
2023/07/20 10:24:58;;;;;;;3.50;1.83;;;27.40;67.80;;;;;;5028622;28;20503;-66
2023/07/20 10:27:24;;;;;;;4.30;2.27;;;27.60;71.20;;;;;;5028666;28;20914;-66
2023/07/20 10:29:51;;;;;;;4.03;2.23;;;28.10;70.90;;;;;;5028495;28;20438;-66
2023/07/20 10:32:18;;;;;;;3.00;2.10;;;28.50;70.40;;;;;;5028773;28;20776;-66
2023/07/20 10:34:55;;;;;;;3.00;2.63;;;28.00;68.80;;;;;;5028567;28;20437;-66
2023/07/20 10:37:50;;;;;;;2.13;1.93;;;27.50;67.90;;;;;;5028476;28;20423;-66
2023/07/20 10:40:30;;;;;;;4.20;2.33;;;27.90;70.00;;;;;;5028365;28;20431;-66
2023/07/20 10:43:19;;;;;;;3.47;2.30;;;28.30;68.30;;;;;;5028143;28;20425;-65
2023/07/20 10:45:54;;;;;;;30.10;5.57;;;28.60;68.40;;;;;;5028021;28;20573;-66
2023/07/20 10:48:24;;;;;;;37.90;4.27;;;28.80;62.90;;;;;;5028299;28;20459;-67
2023/07/20 10:51:15;;;;;;;48.83;5.63;;;29.00;63.70;;;;;;5027773;28;20467;-66
2023/07/20 10:53:40;;;;;;;21.67;4.57;;;29.00;65.10;;;;;;5028279;28;20473;-66
2023/07/20 10:56:14;;;;;;;3.67;2.03;;;28.50;65.60;;;;;;5028300;28;20421;-66
2023/07/20 10:58:41;;;;;;;69.13;8.00;;;28.00;67.60;;;;;;5028417;28;20196;-67
2023/07/20 11:01:07;;;;;;;36.23;4.70;;;27.90;68.90;;;;;;5026974;28;20454;-67
2023/07/20 11:03:39;;;;;;;61.37;8.07;;;27.90;66.40;;;;;;5028716;28;20854;-67
2023/07/20 11:06:24;;;;;;;52.00;5.77;;;27.90;67.30;;;;;;5028711;28;20458;-67
2023/07/20 11:09:04;;;;;;;80.57;11.83;;;28.10;68.30;;;;;;5028772;28;20400;-68
2023/07/20 11:11:32;;;;;;;14.40;2.63;;;27.90;65.20;;;;;;5028941;28;20418;-67
2023/07/20 11:14:02;;;;;;;28.37;5.27;;;27.70;65.40;;;;;;5028835;28;20898;-68
2023/07/20 11:16:36;;;;;;;77.37;8.17;;;27.40;64.40;;;;;;5028897;28;20420;-67
2023/07/20 11:19:04;;;;;;;13.20;2.43;;;27.20;61.80;;;;;;5028426;28;20528;-66
2023/07/20 11:21:36;;;;;;;11.33;2.83;;;26.70;61.70;;;;;;5028699;28;20414;-66
2023/07/20 11:24:06;;;;;;;7.10;2.20;;;26.70;64.60;;;;;;5028554;28;20434;-66
2023/07/20 11:26:41;;;;;;;6.87;2.20;;;26.90;62.40;;;;;;5028363;28;20489;-66
2023/07/20 11:29:06;;;;;;;3.00;1.37;;;27.20;63.90;;;;;;5028212;28;20421;-65
2023/07/20 11:31:35;;;;;;;2.73;1.77;;;27.40;62.90;;;;;;5028542;28;20412;-66
2023/07/20 11:34:01;;;;;;;5.47;2.03;;;27.50;62.30;;;;;;5028209;28;20533;-66
2023/07/20 11:36:27;;;;;;;6.80;1.90;;;27.70;63.30;;;;;;5027745;28;20423;-66
2023/07/20 11:38:53;;;;;;;4.23;2.20;;;27.90;61.80;;;;;;5027617;28;20211;-67
2023/07/20 11:41:19;;;;;;;5.40;1.90;;;27.90;61.90;;;;;;5027947;28;20690;-66
2023/07/20 11:43:45;;;;;;;13.63;1.90;;;27.60;61.40;;;;;;5027770;28;20419;-66
2023/07/20 11:46:11;;;;;;;5.53;1.87;;;27.20;62.60;;;;;;5027800;28;20200;-66
2023/07/20 11:48:37;;;;;;;4.90;1.90;;;27.00;62.50;;;;;;5027254;28;20419;-66
2023/07/20 11:51:03;;;;;;;331.40;33.40;;;26.90;62.90;;;;;;5027435;28;20445;-66
2023/07/20 11:53:29;;;;;;;215.33;21.87;;;27.00;63.50;;;;;;5027434;28;20242;-66
2023/07/20 11:55:55;;;;;;;241.77;26.67;;;27.30;63.20;;;;;;5027313;28;20184;-66
2023/07/20 11:58:21;;;;;;;279.63;28.20;;;27.50;63.50;;;;;;5027285;28;21148;-67
2023/07/20 12:00:47;;;;;;;40.23;6.73;;;27.70;62.20;;;;;;5027214;28;20538;-67
2023/07/20 12:03:13;;;;;;;145.73;14.33;;;27.80;61.90;;;;;;5026994;28;20191;-66
2023/07/20 12:05:39;;;;;;;4.03;1.77;;;28.00;62.00;;;;;;5027003;28;20462;-67
2023/07/20 12:08:05;;;;;;;5.17;1.80;;;27.70;57.40;;;;;;5027192;28;20179;-67
2023/07/20 12:10:31;;;;;;;9.60;3.07;;;27.60;59.40;;;;;;5027001;28;20239;-67
2023/07/20 12:13:03;;;;;;;41.53;4.97;;;27.90;61.30;;;;;;5027142;28;20415;-67
2023/07/20 12:15:30;;;;;;;25.67;4.40;;;28.20;62.20;;;;;;5026808;28;20189;-66
2023/07/20 12:17:57;;;;;;;91.57;12.97;;;28.20;60.60;;;;;;5026952;28;20472;-66
2023/07/20 12:20:37;;;;;;;56.00;8.93;;;27.80;59.20;;;;;;5026795;28;20437;-66
2023/07/20 12:23:07;;;;;;;49.90;6.23;;;27.80;58.80;;;;;;5027088;28;21095;-68
2023/07/20 12:25:44;;;;;;;101.37;11.10;;;27.60;59.70;;;;;;5026835;28;20459;-69
2023/07/20 12:28:14;;;;;;;35.07;5.90;;;27.70;58.40;;;;;;5026993;28;20434;-68
2023/07/20 12:30:41;;;;;;;2.77;1.40;;;27.60;59.00;;;;;;5028079;28;20565;-70
2023/07/20 12:33:07;;;;;;;235.27;23.30;;;27.70;58.70;;;;;;5032012;28;20418;-73
2023/07/20 12:35:33;;;;;;;92.93;10.20;;;27.90;59.30;;;;;;5014150;28;20510;-77
2023/07/20 12:37:59;;;;;;;31.83;4.20;;;28.20;59.70;;;;;;5031821;28;20419;-75
2023/07/20 12:40:25;;;;;;;436.97;42.60;;;28.30;58.60;;;;;;5030982;28;20443;-66
2023/07/20 12:42:51;;;;;;;55.87;7.03;;;28.30;57.90;;;;;;5031466;28;20501;-66
2023/07/20 12:45:16;;;;;;;6.70;2.33;;;28.10;58.00;;;;;;5031099;28;20220;-68